CheckWX is a tool to help pilots better visualize weather data.  It is not intended as a substitute for an official pre-flight weather briefing.

15:37:14 UTC

KCVS TAF
Cannon AFB Airport
Clovis, New Mexico, USA
TAF AMD KCVS 241300Z 2413/2516 03010G15KT 9999 OVC020 QNH3002INS BECMG 2414/2415 10010KT 9999 SKC QNH3008INS BECMG 2417/2418 20012G18KT 9999 SKC QNH2989INS BECMG 2501/2502 23010KT 9999 SKC QNH2993INS BECMG 2514/2515 20012G18KT 9999 SKC QNH3003INS TX36/2422Z TN16/2413Z

Jun-24@
13:00 UTC

Jun-24 @ 13:00 UTC

Jun-24@
14:00 UTC

Jun-24 @ 14:00 UTC

TAF AMD KCVS 241300Z 2413/2516 03010G15KT 9999 OVC020 QNH3002INS

Expired

Wind
  • 030° at 10 KTS
  • {Gusting to 15 KTS
Cloud Levels
  • Overcast at 2,000' AGL

Jun-24@
14:00 UTC

Jun-24 @ 14:00 UTC

Jun-24@
17:00 UTC

Jun-24 @ 17:00 UTC

BECMG 2414/2415 10010KT 9999 SKC QNH3008INS

Becoming

Becoming Conditions expected by Mon, Jun 24, 2019 @ 15:00 UTC

Wind
  • 100° at 10 KTS
Cloud Levels
  • Clear skies

Jun-24@
17:00 UTC

Jun-24 @ 17:00 UTC

Jun-25@
01:00 UTC

Jun-25 @ 01:00 UTC

BECMG 2417/2418 20012G18KT 9999 SKC QNH2989INS

Becoming

Becoming Conditions expected by Mon, Jun 24, 2019 @ 18:00 UTC

Wind
  • 200° at 12 KTS
  • {Gusting to 18 KTS
Cloud Levels
  • Clear skies

Jun-25@
01:00 UTC

Jun-25 @ 01:00 UTC

Jun-25@
14:00 UTC

Jun-25 @ 14:00 UTC

BECMG 2501/2502 23010KT 9999 SKC QNH2993INS

Becoming

Becoming Conditions expected by Tue, Jun 25, 2019 @ 02:00 UTC

Wind
  • 230° at 10 KTS
Cloud Levels
  • Clear skies

Jun-25@
14:00 UTC

Jun-25 @ 14:00 UTC

Jun-25@
16:00 UTC

Jun-25 @ 16:00 UTC

BECMG 2514/2515 20012G18KT 9999 SKC QNH3003INS TX36/2422Z TN16/2413Z

Becoming

Becoming Conditions expected by Tue, Jun 25, 2019 @ 15:00 UTC

Wind
  • 200° at 12 KTS
  • {Gusting to 18 KTS
Cloud Levels
  • Clear skies